Time;durP1;ratioP1;P1;durP2;ratioP2;P2;SDS_P1;SDS_P2;PMS_P1;PMS_P2;Temp;Humidity;BMP_temperature;BMP_pressure;BME280_temperature;BME280_humidity;BME280_pressure;Samples;Min_cycle;Max_cycle;Signal;HPM_P1;HPM_P2
2021/10/12 00:00:37;;;;;;;24.35;18.30;;;9.30;99.90;;;;;;5058482;28;20029;-73
2021/10/12 00:03:03;;;;;;;21.02;16.92;;;9.30;99.90;;;;;;5056677;28;20059;-72
2021/10/12 00:05:29;;;;;;;22.27;16.77;;;9.30;99.90;;;;;;5038603;28;20029;-72
2021/10/12 00:07:54;;;;;;;19.92;16.45;;;9.40;99.90;;;;;;5057617;28;20098;-72
2021/10/12 00:10:20;;;;;;;20.75;16.85;;;9.40;99.90;;;;;;5058506;28;20029;-73
2021/10/12 00:12:45;;;;;;;22.38;16.80;;;9.40;99.90;;;;;;5061926;28;20035;-72
2021/10/12 00:15:11;;;;;;;22.20;17.52;;;9.40;99.90;;;;;;5057356;28;20490;-71
2021/10/12 00:17:37;;;;;;;23.83;17.33;;;9.40;99.90;;;;;;5057273;28;20099;-73
2021/10/12 00:20:05;;;;;;;23.85;16.55;;;9.40;99.90;;;;;;5057617;28;20031;-74
2021/10/12 00:22:31;;;;;;;22.45;17.52;;;9.40;99.90;;;;;;5056549;28;20373;-74
2021/10/12 00:24:57;;;;;;;21.77;17.30;;;9.40;99.90;;;;;;5057338;28;20044;-73
2021/10/12 00:27:23;;;;;;;18.75;15.73;;;9.40;99.90;;;;;;5038213;28;20030;-72
2021/10/12 00:29:48;;;;;;;23.10;18.38;;;9.40;99.90;;;;;;5056650;28;20029;-72
2021/10/12 00:32:14;;;;;;;23.55;17.30;;;9.40;99.90;;;;;;5055033;28;20064;-73
2021/10/12 00:34:39;;;;;;;24.95;17.95;;;9.40;99.90;;;;;;5055851;28;20029;-73
2021/10/12 00:37:05;;;;;;;23.92;16.75;;;9.40;99.90;;;;;;5057825;28;20025;-72
2021/10/12 00:39:30;;;;;;;23.67;18.63;;;9.40;99.90;;;;;;5061306;28;20547;-72
2021/10/12 00:41:56;;;;;;;26.00;17.15;;;9.40;99.90;;;;;;5057833;28;20029;-73
2021/10/12 00:44:22;;;;;;;20.92;18.17;;;9.40;99.90;;;;;;5057356;28;20089;-72
2021/10/12 00:46:47;;;;;;;20.98;16.95;;;9.40;99.90;;;;;;5056917;28;20506;-72
2021/10/12 00:49:13;;;;;;;24.23;17.27;;;9.40;99.90;;;;;;5048002;28;20485;-72
2021/10/12 00:51:39;;;;;;;23.42;16.90;;;9.40;99.90;;;;;;5054477;28;20052;-73
2021/10/12 00:54:05;;;;;;;22.45;17.25;;;9.40;99.90;;;;;;5054079;28;20573;-73
2021/10/12 00:56:30;;;;;;;24.75;18.08;;;9.30;99.90;;;;;;5036049;28;20059;-73
2021/10/12 00:58:56;;;;;;;23.42;17.15;;;9.40;99.90;;;;;;5054726;28;20033;-73
2021/10/12 01:01:22;;;;;;;22.65;17.15;;;9.30;99.90;;;;;;5052532;28;20060;-72
2021/10/12 01:03:47;;;;;;;22.70;17.63;;;9.30;99.90;;;;;;5053361;28;20025;-71
2021/10/12 01:06:14;;;;;;;25.52;16.63;;;9.30;99.90;;;;;;5055424;28;20523;-72
2021/10/12 01:08:39;;;;;;;22.52;17.65;;;9.40;99.90;;;;;;5054424;28;20028;-73
2021/10/12 01:11:06;;;;;;;25.42;17.77;;;9.40;99.90;;;;;;5054881;28;20389;-73
2021/10/12 01:13:32;;;;;;;22.75;17.02;;;9.40;99.90;;;;;;5054390;28;20033;-72
2021/10/12 01:15:57;;;;;;;25.05;18.10;;;9.40;99.90;;;;;;5053741;28;20029;-73
2021/10/12 01:18:23;;;;;;;21.60;16.85;;;9.40;99.90;;;;;;5054901;28;20052;-71
2021/10/12 01:20:53;;;;;;;24.33;16.83;;;9.40;99.90;;;;;;5039790;28;20017;-73
2021/10/12 01:23:19;;;;;;;25.60;18.17;;;9.40;99.90;;;;;;5054674;28;20029;-73
2021/10/12 01:25:44;;;;;;;21.65;16.17;;;9.40;99.90;;;;;;5036461;28;20500;-73
2021/10/12 01:28:10;;;;;;;23.95;17.52;;;9.40;99.90;;;;;;5054952;28;20036;-72
2021/10/12 01:30:37;;;;;;;27.27;16.95;;;9.40;99.90;;;;;;5053472;28;20108;-73
2021/10/12 01:33:04;;;;;;;21.20;16.42;;;9.30;99.90;;;;;;5053564;28;20033;-72
2021/10/12 01:35:30;;;;;;;23.70;16.58;;;9.40;99.90;;;;;;5034830;28;20123;-71
2021/10/12 01:37:56;;;;;;;26.05;17.05;;;9.30;99.90;;;;;;5054507;28;20541;-73
2021/10/12 01:40:22;;;;;;;23.25;16.95;;;9.30;99.90;;;;;;5054147;28;20075;-73
2021/10/12 01:42:47;;;;;;;24.38;17.55;;;9.30;99.90;;;;;;5036673;28;20021;-73
2021/10/12 01:45:13;;;;;;;20.13;16.88;;;9.30;99.90;;;;;;5054445;28;20364;-72
2021/10/12 01:47:40;;;;;;;23.55;16.45;;;9.40;99.90;;;;;;5055389;28;20086;-73
2021/10/12 01:50:08;;;;;;;23.90;15.73;;;9.40;99.90;;;;;;5035970;28;20025;-72
2021/10/12 01:52:33;;;;;;;21.17;15.63;;;9.40;99.90;;;;;;5054586;28;20055;-72
2021/10/12 01:54:59;;;;;;;24.38;16.40;;;9.40;99.90;;;;;;5054647;28;20444;-73
2021/10/12 01:57:25;;;;;;;25.08;15.40;;;9.40;99.90;;;;;;5055003;28;20032;-74
2021/10/12 01:59:51;;;;;;;21.98;16.10;;;9.50;99.90;;;;;;5054291;28;20033;-72
2021/10/12 02:02:16;;;;;;;23.77;16.75;;;9.50;99.90;;;;;;5037218;28;20067;-71
2021/10/12 02:04:42;;;;;;;23.42;16.23;;;9.50;99.90;;;;;;5058858;28;20044;-72
2021/10/12 02:07:07;;;;;;;27.25;16.92;;;9.50;99.90;;;;;;5058797;28;20044;-73
2021/10/12 02:09:33;;;;;;;22.23;16.02;;;9.50;99.90;;;;;;5058441;28;20037;-73
2021/10/12 02:11:59;;;;;;;18.77;15.40;;;9.50;99.90;;;;;;5059155;28;20061;-73
2021/10/12 02:14:24;;;;;;;22.30;16.58;;;9.50;99.90;;;;;;5057687;28;20508;-74
2021/10/12 02:16:50;;;;;;;22.65;15.95;;;9.60;99.90;;;;;;5055725;28;20491;-72
2021/10/12 02:19:16;;;;;;;23.55;16.25;;;9.50;99.90;;;;;;5090637;22;20036;-77
2021/10/12 02:21:42;;;;;;;21.48;15.82;;;9.60;99.90;;;;;;5067552;28;20104;-76
2021/10/12 02:24:07;;;;;;;25.70;15.77;;;9.50;99.90;;;;;;5071258;28;20418;-75
2021/10/12 02:26:33;;;;;;;20.65;15.43;;;9.50;99.90;;;;;;5074479;28;20044;-75
2021/10/12 02:28:58;;;;;;;19.63;15.10;;;9.50;99.90;;;;;;5070513;28;20032;-77
2021/10/12 02:31:24;;;;;;;23.10;15.10;;;9.50;99.90;;;;;;5066376;28;20029;-76
2021/10/12 02:33:50;;;;;;;23.63;16.75;;;9.50;99.90;;;;;;5071254;28;20027;-76
2021/10/12 02:36:15;;;;;;;21.15;16.77;;;9.50;99.90;;;;;;5063768;28;20115;-76
2021/10/12 02:38:41;;;;;;;22.23;14.88;;;9.50;99.90;;;;;;5067909;28;20032;-75
2021/10/12 02:41:07;;;;;;;21.15;17.00;;;9.60;99.90;;;;;;5063463;28;20028;-76
2021/10/12 02:43:33;;;;;;;22.15;16.00;;;9.60;99.90;;;;;;5065910;28;20028;-75
2021/10/12 02:45:59;;;;;;;23.00;17.15;;;9.60;99.90;;;;;;5061618;28;20035;-76
2021/10/12 02:48:25;;;;;;;24.55;15.80;;;9.60;99.90;;;;;;5062891;28;20032;-76
2021/10/12 02:50:51;;;;;;;23.63;15.73;;;9.60;99.90;;;;;;5063493;28;20458;-75
2021/10/12 02:53:18;;;;;;;19.50;16.27;;;9.60;99.90;;;;;;5063016;28;21399;-75
2021/10/12 02:55:44;;;;;;;22.15;15.35;;;9.60;99.90;;;;;;5065159;28;20056;-75
2021/10/12 02:58:09;;;;;;;21.15;16.02;;;9.60;99.90;;;;;;5064342;28;20040;-76
2021/10/12 03:00:35;;;;;;;22.90;17.02;;;9.60;99.90;;;;;;5062504;28;20028;-77
2021/10/12 03:03:01;;;;;;;20.75;15.45;;;9.60;99.90;;;;;;5055749;28;20096;-76
2021/10/12 03:05:26;;;;;;;22.92;17.33;;;9.50;99.90;;;;;;5063931;28;20021;-76
2021/10/12 03:07:52;;;;;;;17.40;14.68;;;9.50;99.90;;;;;;5067922;28;20099;-76
2021/10/12 03:10:18;;;;;;;24.83;16.10;;;9.40;99.90;;;;;;5042998;28;20021;-75
2021/10/12 03:12:44;;;;;;;22.70;16.35;;;9.50;99.90;;;;;;5069084;28;20029;-76
2021/10/12 03:15:09;;;;;;;24.20;16.77;;;9.40;99.90;;;;;;5043330;28;20021;-75
2021/10/12 03:17:35;;;;;;;29.40;17.42;;;9.40;99.90;;;;;;5053412;28;20060;-75
2021/10/12 03:20:00;;;;;;;26.05;15.95;;;9.40;99.90;;;;;;5068940;28;20056;-75
2021/10/12 03:22:27;;;;;;;22.52;16.98;;;9.60;99.90;;;;;;5069226;28;20518;-75
2021/10/12 03:24:54;;;;;;;23.58;16.92;;;9.60;99.90;;;;;;5062039;28;20017;-76
2021/10/12 03:27:20;;;;;;;21.65;16.52;;;9.50;99.90;;;;;;5047310;28;20538;-76
2021/10/12 03:29:45;;;;;;;24.08;17.92;;;9.50;99.90;;;;;;5062365;28;20116;-75
2021/10/12 03:32:11;;;;;;;25.38;17.00;;;9.40;99.90;;;;;;5054926;28;20032;-75
2021/10/12 03:34:37;;;;;;;22.55;16.45;;;9.40;99.90;;;;;;5037149;28;20498;-75
2021/10/12 03:37:03;;;;;;;21.77;16.67;;;9.40;99.90;;;;;;5040016;28;20086;-75
2021/10/12 03:39:30;;;;;;;23.17;17.15;;;9.50;99.90;;;;;;5057617;28;20033;-77
2021/10/12 03:41:56;;;;;;;22.83;17.48;;;9.40;99.90;;;;;;5057050;28;20374;-77
2021/10/12 03:44:23;;;;;;;25.13;17.48;;;9.40;99.90;;;;;;5050825;28;20055;-75
2021/10/12 03:46:49;;;;;;;24.13;16.88;;;9.40;99.90;;;;;;5043279;28;20058;-76
2021/10/12 03:49:15;;;;;;;25.80;17.35;;;9.60;99.90;;;;;;5067822;28;20055;-75
2021/10/12 03:51:43;;;;;;;23.83;16.25;;;9.60;99.90;;;;;;5086304;28;20017;-73
2021/10/12 03:54:13;;;;;;;25.52;17.58;;;9.70;99.90;;;;;;5067244;28;20036;-75
2021/10/12 03:56:38;;;;;;;24.80;16.80;;;9.70;99.90;;;;;;5044390;28;20094;-77
2021/10/12 03:59:05;;;;;;;24.10;17.08;;;9.70;99.90;;;;;;5061554;28;20032;-76
2021/10/12 04:01:30;;;;;;;25.27;16.75;;;9.70;99.90;;;;;;5041573;28;20041;-76
2021/10/12 04:03:56;;;;;;;30.85;18.08;;;9.60;99.90;;;;;;5059450;28;20029;-75
2021/10/12 04:06:22;;;;;;;25.55;16.08;;;9.60;99.90;;;;;;5064925;28;20454;-75
2021/10/12 04:08:47;;;;;;;24.45;16.48;;;9.50;99.90;;;;;;5068594;28;20032;-76
2021/10/12 04:11:13;;;;;;;22.58;16.23;;;9.60;99.90;;;;;;5067065;28;20029;-76
2021/10/12 04:13:39;;;;;;;28.90;17.05;;;9.60;99.90;;;;;;5067151;28;20371;-76
2021/10/12 04:16:04;;;;;;;21.65;16.98;;;9.60;99.90;;;;;;5052380;28;20521;-76
2021/10/12 04:18:30;;;;;;;21.27;16.13;;;9.70;99.90;;;;;;5055256;28;20033;-76
2021/10/12 04:20:56;;;;;;;23.90;17.92;;;9.60;99.90;;;;;;5052734;28;20029;-76
2021/10/12 04:23:21;;;;;;;23.70;15.65;;;9.70;99.90;;;;;;5052964;28;20017;-76
2021/10/12 04:25:47;;;;;;;30.42;16.83;;;9.70;99.90;;;;;;5034960;28;20503;-76
2021/10/12 04:28:14;;;;;;;24.92;16.58;;;9.60;99.90;;;;;;5053638;28;20503;-76
2021/10/12 04:30:42;;;;;;;23.65;17.15;;;9.60;99.90;;;;;;5036412;28;20067;-75
2021/10/12 04:33:08;;;;;;;23.92;17.38;;;9.60;99.90;;;;;;5052827;28;20374;-76
2021/10/12 04:35:34;;;;;;;22.38;15.23;;;9.60;99.90;;;;;;5034774;28;20052;-74
2021/10/12 04:38:00;;;;;;;29.13;17.70;;;9.70;99.90;;;;;;5052998;28;20028;-75
2021/10/12 04:40:25;;;;;;;24.70;16.45;;;9.60;99.90;;;;;;5052919;28;20068;-75
2021/10/12 04:42:52;;;;;;;27.25;16.63;;;9.70;99.90;;;;;;5052442;28;20053;-76
2021/10/12 04:45:18;;;;;;;24.50;17.73;;;9.70;99.90;;;;;;5053290;28;20446;-75
2021/10/12 04:47:43;;;;;;;27.85;17.38;;;9.70;99.90;;;;;;5056236;28;20017;-75
2021/10/12 04:50:09;;;;;;;29.38;16.92;;;9.70;99.90;;;;;;5056047;28;20025;-75
2021/10/12 04:52:35;;;;;;;23.23;15.90;;;9.70;99.90;;;;;;5058473;28;20017;-75
2021/10/12 04:55:01;;;;;;;21.52;16.13;;;9.70;99.90;;;;;;5056127;28;20429;-76
2021/10/12 04:57:27;;;;;;;23.90;15.18;;;9.60;99.90;;;;;;5056546;28;20057;-75
2021/10/12 04:59:52;;;;;;;18.42;13.60;;;9.60;99.90;;;;;;5071540;28;20068;-74
2021/10/12 05:02:19;;;;;;;22.90;14.18;;;9.60;99.90;;;;;;5075376;28;20146;-74
2021/10/12 05:04:46;;;;;;;14.13;12.35;;;9.50;99.90;;;;;;5077447;28;20019;-75
2021/10/12 05:07:11;;;;;;;18.25;13.30;;;9.50;99.90;;;;;;5082071;28;20028;-75
2021/10/12 05:09:37;;;;;;;18.40;13.32;;;9.50;99.90;;;;;;5050762;28;20045;-74
2021/10/12 05:12:02;;;;;;;18.52;12.38;;;9.50;99.90;;;;;;5045567;28;20025;-74
2021/10/12 05:14:28;;;;;;;17.15;11.90;;;9.50;99.90;;;;;;5065064;28;20273;-76
2021/10/12 05:16:55;;;;;;;18.83;12.20;;;9.50;99.90;;;;;;5047480;28;20036;-75
2021/10/12 05:19:21;;;;;;;19.58;12.40;;;9.50;99.90;;;;;;5044738;28;20040;-75
2021/10/12 05:21:46;;;;;;;18.98;12.77;;;9.50;99.90;;;;;;5059930;28;20021;-74
2021/10/12 05:24:12;;;;;;;16.08;11.63;;;9.60;99.90;;;;;;5060571;28;20044;-75
2021/10/12 05:26:38;;;;;;;20.25;15.05;;;9.50;99.90;;;;;;5061023;28;20033;-74
2021/10/12 05:29:03;;;;;;;21.70;14.93;;;9.50;99.90;;;;;;5037029;28;20041;-76
2021/10/12 05:31:29;;;;;;;26.40;16.38;;;9.60;99.90;;;;;;5061809;28;20044;-75
2021/10/12 05:33:55;;;;;;;23.15;14.93;;;9.60;99.90;;;;;;5064010;28;20028;-75
2021/10/12 05:36:20;;;;;;;17.23;12.63;;;9.60;99.90;;;;;;5038256;28;20030;-76
2021/10/12 05:38:47;;;;;;;20.42;14.55;;;9.50;99.90;;;;;;5063968;28;20025;-76
2021/10/12 05:41:12;;;;;;;18.42;13.85;;;9.60;99.90;;;;;;5064233;28;20025;-76
2021/10/12 05:43:38;;;;;;;19.20;13.27;;;9.60;99.90;;;;;;5069324;28;20476;-77
2021/10/12 05:46:05;;;;;;;18.80;12.93;;;9.60;99.90;;;;;;5069524;28;20040;-74
2021/10/12 05:48:30;;;;;;;19.05;13.93;;;9.60;99.90;;;;;;5047627;28;20100;-75
2021/10/12 05:50:56;;;;;;;19.60;13.05;;;9.50;99.90;;;;;;5060760;28;20029;-76
2021/10/12 05:53:26;;;;;;;18.67;13.52;;;9.50;99.90;;;;;;5065499;28;20052;-76
2021/10/12 05:56:03;;;;;;;20.90;14.20;;;9.50;99.90;;;;;;5045654;28;20030;-76
2021/10/12 05:58:34;;;;;;;22.90;14.85;;;9.50;99.90;;;;;;5066026;28;20040;-76
2021/10/12 06:01:02;;;;;;;27.48;16.33;;;9.60;99.90;;;;;;5050119;28;20032;-76
2021/10/12 06:03:28;;;;;;;18.95;13.80;;;9.60;99.90;;;;;;5065752;28;20036;-76
2021/10/12 06:05:55;;;;;;;22.35;13.73;;;9.50;99.90;;;;;;5046308;28;20083;-75
2021/10/12 06:08:21;;;;;;;19.95;13.98;;;9.50;99.90;;;;;;5065284;28;20054;-75
2021/10/12 06:10:47;;;;;;;26.05;15.05;;;9.50;99.90;;;;;;5064722;28;20036;-76
2021/10/12 06:13:12;;;;;;;19.92;14.82;;;9.50;99.90;;;;;;5065214;28;20029;-76
2021/10/12 06:15:42;;;;;;;21.90;13.82;;;9.50;99.90;;;;;;5069543;28;20446;-75
2021/10/12 06:18:09;;;;;;;25.25;13.80;;;9.50;99.90;;;;;;5069375;28;20042;-75
2021/10/12 06:20:35;;;;;;;23.35;15.20;;;9.60;99.90;;;;;;5060002;28;20020;-76
2021/10/12 06:23:01;;;;;;;23.25;15.43;;;9.70;99.90;;;;;;5060267;28;20521;-75
2021/10/12 06:25:27;;;;;;;16.85;13.13;;;9.80;99.90;;;;;;5071421;28;20072;-75
2021/10/12 06:27:52;;;;;;;20.00;12.68;;;9.70;99.90;;;;;;5062610;28;20106;-76
2021/10/12 06:30:18;;;;;;;24.33;13.90;;;9.60;99.90;;;;;;5064213;28;20175;-75
2021/10/12 06:32:44;;;;;;;17.45;12.60;;;9.70;99.90;;;;;;5067240;28;20016;-74
2021/10/12 06:35:10;;;;;;;23.63;13.77;;;9.70;99.90;;;;;;5068680;28;20025;-75
2021/10/12 06:37:35;;;;;;;19.63;12.65;;;9.70;99.90;;;;;;5073009;28;20032;-74
2021/10/12 06:40:02;;;;;;;17.38;12.45;;;9.70;99.90;;;;;;5067526;28;20041;-76
2021/10/12 06:42:27;;;;;;;23.80;14.10;;;9.70;99.90;;;;;;5066030;28;20017;-76
2021/10/12 06:44:53;;;;;;;22.25;13.10;;;9.80;99.90;;;;;;5066980;28;20060;-75
2021/10/12 06:47:19;;;;;;;20.38;13.52;;;9.80;99.90;;;;;;5068575;28;20040;-75
2021/10/12 06:49:44;;;;;;;24.83;14.07;;;9.80;99.90;;;;;;5063941;28;20033;-75
2021/10/12 06:52:10;;;;;;;19.30;14.10;;;9.80;99.90;;;;;;5058271;28;20033;-76
2021/10/12 06:54:36;;;;;;;19.83;13.90;;;9.80;99.90;;;;;;5064425;28;20095;-76
2021/10/12 06:57:02;;;;;;;24.33;13.88;;;9.80;99.90;;;;;;5064426;28;20116;-76
2021/10/12 06:59:28;;;;;;;24.08;13.95;;;9.80;99.90;;;;;;5064612;28;20028;-76
2021/10/12 07:01:54;;;;;;;22.60;15.38;;;9.80;99.90;;;;;;5062315;28;20050;-76
2021/10/12 07:04:21;;;;;;;27.48;19.13;;;9.70;99.90;;;;;;5066976;28;20086;-76
2021/10/12 07:06:47;;;;;;;24.55;13.73;;;9.70;99.90;;;;;;5060176;28;20048;-76
2021/10/12 07:09:16;;;;;;;23.80;13.88;;;9.70;99.90;;;;;;5064147;28;20032;-76
2021/10/12 07:11:41;;;;;;;17.30;13.60;;;9.70;99.90;;;;;;5060536;28;20443;-75
2021/10/12 07:14:07;;;;;;;17.75;13.32;;;9.80;99.90;;;;;;5061676;28;20135;-74
2021/10/12 07:16:32;;;;;;;19.65;12.77;;;9.70;99.90;;;;;;5060919;28;20021;-74
2021/10/12 07:18:58;;;;;;;19.58;12.55;;;9.70;99.90;;;;;;5058012;28;20623;-76
2021/10/12 07:21:25;;;;;;;19.77;12.95;;;9.80;99.90;;;;;;5063527;28;20420;-76
2021/10/12 07:23:51;;;;;;;19.05;11.93;;;9.80;99.90;;;;;;5067361;28;20107;-73
2021/10/12 07:26:17;;;;;;;14.27;11.13;;;9.90;99.90;;;;;;5062447;28;20079;-76
2021/10/12 07:28:43;;;;;;;17.80;11.50;;;9.80;99.90;;;;;;5057510;28;20131;-75
2021/10/12 07:31:09;;;;;;;13.45;11.02;;;9.80;99.90;;;;;;5045529;28;20497;-75
2021/10/12 07:33:34;;;;;;;15.88;11.05;;;9.90;99.90;;;;;;5016354;28;20025;-74
2021/10/12 07:36:00;;;;;;;12.95;9.70;;;9.90;99.90;;;;;;5058415;28;20037;-74
2021/10/12 07:38:26;;;;;;;14.98;11.02;;;9.90;99.90;;;;;;5071531;28;20066;-75
2021/10/12 07:40:51;;;;;;;16.80;10.32;;;10.00;99.90;;;;;;5061387;28;20043;-75
2021/10/12 07:43:17;;;;;;;12.35;8.38;;;10.00;99.90;;;;;;5052750;28;20028;-75
2021/10/12 07:45:43;;;;;;;14.13;9.60;;;10.00;99.90;;;;;;5073442;28;20073;-74
2021/10/12 07:48:09;;;;;;;12.70;8.80;;;10.00;99.90;;;;;;5069240;28;20117;-75
2021/10/12 07:50:35;;;;;;;11.90;8.55;;;10.10;99.90;;;;;;5064491;28;20033;-75
2021/10/12 07:53:00;;;;;;;11.95;7.93;;;10.10;99.90;;;;;;5060518;28;20040;-75
2021/10/12 07:55:39;;;;;;;16.88;11.10;;;10.10;99.90;;;;;;5045030;28;20111;-75
2021/10/12 07:58:05;;;;;;;14.27;9.13;;;10.10;99.90;;;;;;5068204;28;20025;-75
2021/10/12 08:00:31;;;;;;;14.35;8.52;;;10.10;99.90;;;;;;5064851;28;20032;-74
2021/10/12 08:03:02;;;;;;;16.80;8.32;;;10.20;99.90;;;;;;5055429;28;20089;-75
2021/10/12 08:05:31;;;;;;;12.43;8.00;;;10.30;99.90;;;;;;5063454;28;20040;-76
2021/10/12 08:07:57;;;;;;;11.25;8.57;;;10.40;99.90;;;;;;5075758;28;20047;-74
2021/10/12 08:10:23;;;;;;;9.93;7.18;;;10.40;99.90;;;;;;5084818;28;20013;-73
2021/10/12 08:12:54;;;;;;;8.75;7.70;;;10.40;99.90;;;;;;5088761;28;20194;-72
2021/10/12 08:15:20;;;;;;;8.00;6.68;;;10.40;99.90;;;;;;5074357;28;20484;-75
2021/10/12 08:17:47;;;;;;;10.02;7.28;;;10.30;99.90;;;;;;5056197;28;20209;-75
2021/10/12 08:20:13;;;;;;;11.80;6.53;;;10.40;99.90;;;;;;5091756;22;20102;-72
2021/10/12 08:22:39;;;;;;;10.40;7.15;;;10.40;99.90;;;;;;5073102;28;20025;-73
2021/10/12 08:25:08;;;;;;;8.52;6.20;;;10.40;99.90;;;;;;5072571;28;20510;-72
2021/10/12 08:27:34;;;;;;;9.48;6.82;;;10.50;99.90;;;;;;5064786;28;20035;-73
2021/10/12 08:29:59;;;;;;;10.82;7.13;;;10.50;99.90;;;;;;5055657;28;20024;-73
2021/10/12 08:32:25;;;;;;;11.40;7.68;;;10.50;99.90;;;;;;5055484;28;20062;-73
2021/10/12 08:34:51;;;;;;;9.43;7.10;;;10.60;99.90;;;;;;5044012;28;20028;-71
2021/10/12 08:37:16;;;;;;;12.40;7.55;;;10.70;99.90;;;;;;5055864;28;20082;-71
2021/10/12 08:39:44;;;;;;;8.38;6.78;;;10.80;99.90;;;;;;5061211;28;20476;-72
2021/10/12 08:42:29;;;;;;;9.90;6.35;;;11.00;99.90;;;;;;5060596;28;20025;-72
2021/10/12 08:44:57;;;;;;;8.10;6.03;;;11.00;99.90;;;;;;5050766;28;20087;-74
2021/10/12 08:47:24;;;;;;;9.55;6.60;;;11.00;99.90;;;;;;5062861;28;20031;-72
2021/10/12 08:49:51;;;;;;;7.72;6.78;;;11.10;99.90;;;;;;5072920;28;20025;-73
2021/10/12 08:52:17;;;;;;;8.27;5.70;;;11.20;99.90;;;;;;5072653;28;20033;-72
2021/10/12 08:54:43;;;;;;;8.27;6.10;;;11.30;99.90;;;;;;5072129;28;20033;-72
2021/10/12 08:57:09;;;;;;;9.63;6.38;;;11.20;99.90;;;;;;5061501;28;20546;-72
2021/10/12 08:59:34;;;;;;;8.65;6.38;;;11.20;99.90;;;;;;5068103;28;20031;-72
2021/10/12 09:02:03;;;;;;;9.40;5.85;;;11.20;99.90;;;;;;5037260;28;20115;-73
2021/10/12 09:04:42;;;;;;;8.07;6.32;;;11.20;99.90;;;;;;5040389;28;20439;-72
2021/10/12 09:07:23;;;;;;;8.82;6.18;;;11.30;99.90;;;;;;5052799;28;20045;-72
2021/10/12 09:09:51;;;;;;;10.88;9.63;;;11.30;99.90;;;;;;5043959;28;20523;-74
2021/10/12 09:12:17;;;;;;;7.40;6.55;;;11.30;99.90;;;;;;5062039;28;20044;-73
2021/10/12 09:14:59;;;;;;;7.72;5.75;;;11.40;99.90;;;;;;5049774;28;20029;-73
2021/10/12 09:17:33;;;;;;;9.18;6.07;;;11.60;99.90;;;;;;5040309;28;20033;-73
2021/10/12 09:20:00;;;;;;;8.10;5.82;;;11.70;99.90;;;;;;5047601;28;20449;-73
2021/10/12 09:22:26;;;;;;;6.90;5.38;;;11.80;99.90;;;;;;5070727;28;20025;-73
2021/10/12 09:24:52;;;;;;;8.82;5.65;;;12.00;99.90;;;;;;5059036;28;20021;-73
2021/10/12 09:27:19;;;;;;;9.82;5.85;;;12.00;99.90;;;;;;5045570;28;20037;-73
2021/10/12 09:29:48;;;;;;;7.10;6.15;;;12.10;99.90;;;;;;5064050;28;20056;-73
2021/10/12 09:32:14;;;;;;;6.13;5.50;;;12.00;99.90;;;;;;5064416;28;20373;-73
2021/10/12 09:34:44;;;;;;;8.10;5.10;;;12.00;99.90;;;;;;5066471;28;20030;-74
2021/10/12 09:37:15;;;;;;;8.00;7.20;;;11.90;99.90;;;;;;5068304;28;20107;-72
2021/10/12 09:39:43;;;;;;;5.95;5.13;;;11.90;99.90;;;;;;5076665;28;20021;-72
2021/10/12 09:42:14;;;;;;;7.38;5.88;;;11.90;99.90;;;;;;5052335;28;20052;-72
2021/10/12 09:44:57;;;;;;;7.28;5.22;;;12.10;99.90;;;;;;5064662;28;20645;-73
2021/10/12 09:47:24;;;;;;;7.53;4.57;;;12.30;99.90;;;;;;5062441;28;20039;-73
2021/10/12 09:50:08;;;;;;;9.68;5.47;;;12.30;99.90;;;;;;5049579;28;20033;-73
2021/10/12 09:52:38;;;;;;;8.20;4.78;;;12.10;99.90;;;;;;5074883;28;20458;-75
2021/10/12 09:55:05;;;;;;;9.73;4.40;;;11.90;99.90;;;;;;5076717;28;20298;-72
2021/10/12 09:57:32;;;;;;;7.35;4.60;;;11.70;99.90;;;;;;5075753;28;20037;-73
2021/10/12 09:59:57;;;;;;;6.40;4.93;;;11.50;99.90;;;;;;5069454;28;20052;-73
2021/10/12 10:02:24;;;;;;;6.53;4.95;;;11.40;99.90;;;;;;5068109;28;20028;-72
2021/10/12 10:04:53;;;;;;;5.78;4.45;;;11.30;99.90;;;;;;5075664;28;20048;-72
2021/10/12 10:07:24;;;;;;;12.25;5.32;;;11.10;99.90;;;;;;5075514;28;20063;-72
2021/10/12 10:09:54;;;;;;;7.13;4.53;;;11.10;99.90;;;;;;5075458;28;20048;-73
2021/10/12 10:12:20;;;;;;;7.95;4.78;;;11.10;99.90;;;;;;5075638;28;20052;-74
2021/10/12 10:14:46;;;;;;;8.50;4.85;;;11.20;99.90;;;;;;5067237;28;20067;-73
2021/10/12 10:17:13;;;;;;;5.95;3.47;;;11.20;99.90;;;;;;5062920;28;20033;-76
2021/10/12 10:19:43;;;;;;;6.13;4.07;;;11.40;99.90;;;;;;5052611;28;20036;-73
2021/10/12 10:22:29;;;;;;;6.82;4.18;;;11.40;99.90;;;;;;5062149;28;20029;-73
2021/10/12 10:24:56;;;;;;;5.93;4.35;;;11.50;99.90;;;;;;5058146;28;20033;-73
2021/10/12 10:27:36;;;;;;;8.68;5.15;;;11.60;99.90;;;;;;5056569;28;20033;-74
2021/10/12 10:30:28;;;;;;;8.88;5.28;;;11.80;99.90;;;;;;5038438;28;20024;-74
2021/10/12 10:33:00;;;;;;;6.93;5.07;;;12.00;99.90;;;;;;5055179;28;20506;-73
2021/10/12 10:35:40;;;;;;;7.47;5.40;;;12.30;99.90;;;;;;5065737;28;20037;-72
2021/10/12 10:38:21;;;;;;;9.15;5.88;;;12.50;99.90;;;;;;5075791;28;20112;-71
2021/10/12 10:40:48;;;;;;;7.78;5.78;;;12.70;99.90;;;;;;5057028;28;20101;-72
2021/10/12 10:43:14;;;;;;;7.57;4.82;;;13.00;99.90;;;;;;5045796;28;20112;-73
2021/10/12 10:45:44;;;;;;;7.43;5.47;;;13.00;99.90;;;;;;5067125;28;20110;-72
2021/10/12 10:48:12;;;;;;;5.70;5.10;;;13.00;99.90;;;;;;5072431;28;20111;-74
2021/10/12 10:50:38;;;;;;;8.65;5.55;;;13.20;99.90;;;;;;5076964;28;20039;-73
2021/10/12 10:53:06;;;;;;;11.43;5.38;;;13.20;99.90;;;;;;5075414;28;20484;-73
2021/10/12 10:55:35;;;;;;;7.70;5.30;;;13.20;99.90;;;;;;5075201;28;20107;-72
2021/10/12 10:58:16;;;;;;;6.57;4.82;;;13.10;99.90;;;;;;5075023;28;20029;-73
2021/10/12 11:00:45;;;;;;;7.25;5.43;;;13.10;99.90;;;;;;5067941;28;20039;-70
2021/10/12 11:03:28;;;;;;;9.73;5.32;;;12.80;99.90;;;;;;5044825;28;20030;-72
2021/10/12 11:06:02;;;;;;;8.52;5.10;;;12.80;99.90;;;;;;5066336;28;20032;-72
2021/10/12 11:08:29;;;;;;;9.13;6.10;;;12.70;99.90;;;;;;5037399;28;20515;-72
2021/10/12 11:10:55;;;;;;;7.93;3.72;;;12.70;99.90;;;;;;5054391;28;20032;-71
2021/10/12 11:13:37;;;;;;;9.02;4.45;;;12.60;99.90;;;;;;5054711;28;20024;-71
2021/10/12 11:16:07;;;;;;;12.00;4.45;;;12.50;99.90;;;;;;5046770;28;20425;-71
2021/10/12 11:18:33;;;;;;;6.35;3.90;;;12.40;99.90;;;;;;5047305;28;20047;-72
2021/10/12 11:21:02;;;;;;;9.57;4.90;;;12.30;99.90;;;;;;5048458;28;20036;-73
2021/10/12 11:23:35;;;;;;;6.25;4.00;;;12.10;99.90;;;;;;5073074;28;20036;-73
2021/10/12 11:26:16;;;;;;;5.78;3.53;;;12.20;99.90;;;;;;5074804;28;20024;-72
2021/10/12 11:28:52;;;;;;;9.32;3.08;;;12.30;99.90;;;;;;5055665;28;20104;-71
2021/10/12 11:31:21;;;;;;;4.57;2.55;;;12.30;99.90;;;;;;5054793;28;20404;-73
2021/10/12 11:33:54;;;;;;;5.47;2.58;;;12.50;99.90;;;;;;5054063;28;20033;-73
2021/10/12 11:36:26;;;;;;;5.90;2.40;;;12.70;99.90;;;;;;5054110;28;20078;-73
2021/10/12 11:38:54;;;;;;;8.93;3.38;;;12.60;99.90;;;;;;5036362;28;20111;-73
2021/10/12 11:41:22;;;;;;;5.55;2.70;;;12.90;99.90;;;;;;5058924;28;20061;-73
2021/10/12 11:43:51;;;;;;;7.05;3.05;;;13.00;99.90;;;;;;5066463;28;20502;-72
2021/10/12 11:46:22;;;;;;;6.05;3.00;;;13.00;99.90;;;;;;5065725;28;20040;-72
2021/10/12 11:48:48;;;;;;;6.95;3.00;;;13.20;99.90;;;;;;5045761;28;20044;-73
2021/10/12 11:51:15;;;;;;;4.15;2.70;;;13.30;99.90;;;;;;5051204;28;20139;-72
2021/10/12 11:53:42;;;;;;;5.78;2.80;;;13.60;99.90;;;;;;5067130;28;20032;-72
2021/10/12 11:56:10;;;;;;;7.22;2.83;;;13.40;99.90;;;;;;5054881;28;20024;-72
2021/10/12 11:58:41;;;;;;;6.05;3.25;;;13.30;99.90;;;;;;5050937;28;20024;-72
2021/10/12 12:01:08;;;;;;;;;;;13.30;99.90;;;;;;5075385;28;20070;-73
2021/10/12 12:03:35;;;;;;;4.97;2.70;;;13.40;99.90;;;;;;5066316;28;19912;-72
2021/10/12 12:06:00;;;;;;;7.75;3.28;;;13.30;99.90;;;;;;5074393;28;20034;-72
2021/10/12 12:08:30;;;;;;;5.50;3.00;;;13.30;99.90;;;;;;5055677;28;20031;-73
2021/10/12 12:10:57;;;;;;;8.52;3.35;;;13.30;99.90;;;;;;5074049;28;20519;-73
2021/10/12 12:13:30;;;;;;;6.57;2.75;;;13.20;99.90;;;;;;5075848;28;20032;-72
2021/10/12 12:15:59;;;;;;;5.07;2.30;;;13.20;99.90;;;;;;5061874;28;20039;-74
2021/10/12 12:18:27;;;;;;;4.00;2.05;;;13.20;99.90;;;;;;5071273;28;20016;-73
2021/10/12 12:20:58;;;;;;;3.65;2.10;;;13.30;99.90;;;;;;5074988;28;20013;-73
2021/10/12 12:23:33;;;;;;;10.15;2.67;;;13.30;99.90;;;;;;5073673;28;20020;-72
2021/10/12 12:25:59;;;;;;;5.95;2.40;;;13.50;99.90;;;;;;5074311;28;20029;-73
2021/10/12 12:28:25;;;;;;;5.70;2.08;;;13.50;99.90;;;;;;5069829;28;20025;-72
2021/10/12 12:30:51;;;;;;;6.97;2.17;;;13.60;99.90;;;;;;5048951;28;20153;-72
2021/10/12 12:33:17;;;;;;;5.07;2.10;;;13.60;99.90;;;;;;5074035;28;20028;-71
2021/10/12 12:35:45;;;;;;;11.73;2.50;;;13.50;99.90;;;;;;5064390;28;20124;-72
2021/10/12 12:38:11;;;;;;;6.40;2.80;;;13.30;99.90;;;;;;5065227;28;20021;-73
2021/10/12 12:40:39;;;;;;;4.55;2.67;;;13.20;99.90;;;;;;5069974;28;20226;-72